sensor_id;sensor_type;location;lat;lon;timestamp;P1;durP1;ratioP1;P2;durP2;ratioP2
37355;SDS011;48747;50.250;18.848;2023-02-15T00:01:10;38.63;;;22.05;;
37355;SDS011;48747;50.250;18.848;2023-02-15T00:03:19;35.17;;;21.15;;
37355;SDS011;48747;50.250;18.848;2023-02-15T00:05:30;36.77;;;21.55;;
37355;SDS011;48747;50.250;18.848;2023-02-15T00:07:44;39.83;;;21.60;;
37355;SDS011;48747;50.250;18.848;2023-02-15T00:09:47;37.45;;;22.00;;
37355;SDS011;48747;50.250;18.848;2023-02-15T00:11:50;34.20;;;19.32;;
37355;SDS011;48747;50.250;18.848;2023-02-15T00:14:04;35.90;;;20.82;;
37355;SDS011;48747;50.250;18.848;2023-02-15T00:16:10;32.08;;;19.32;;
37355;SDS011;48747;50.250;18.848;2023-02-15T00:18:23;34.48;;;18.77;;
37355;SDS011;48747;50.250;18.848;2023-02-15T00:20:33;35.38;;;20.35;;
37355;SDS011;48747;50.250;18.848;2023-02-15T00:24:52;35.85;;;20.70;;
37355;SDS011;48747;50.250;18.848;2023-02-15T00:27:02;32.73;;;19.52;;
37355;SDS011;48747;50.250;18.848;2023-02-15T00:29:08;34.95;;;21.50;;
37355;SDS011;48747;50.250;18.848;2023-02-15T00:33:26;36.15;;;20.48;;
37355;SDS011;48747;50.250;18.848;2023-02-15T00:35:30;33.40;;;19.17;;
37355;SDS011;48747;50.250;18.848;2023-02-15T00:37:49;36.70;;;19.75;;
37355;SDS011;48747;50.250;18.848;2023-02-15T00:39:45;34.80;;;20.70;;
37355;SDS011;48747;50.250;18.848;2023-02-15T00:41:55;37.42;;;21.73;;
37355;SDS011;48747;50.250;18.848;2023-02-15T00:44:10;34.53;;;18.87;;
37355;SDS011;48747;50.250;18.848;2023-02-15T00:46:18;36.45;;;19.42;;
37355;SDS011;48747;50.250;18.848;2023-02-15T00:48:35;31.35;;;19.42;;
37355;SDS011;48747;50.250;18.848;2023-02-15T00:50:43;34.85;;;20.17;;
37355;SDS011;48747;50.250;18.848;2023-02-15T00:52:46;38.42;;;20.23;;
37355;SDS011;48747;50.250;18.848;2023-02-15T00:57:11;33.05;;;19.15;;
37355;SDS011;48747;50.250;18.848;2023-02-15T00:58:56;32.42;;;18.73;;
37355;SDS011;48747;50.250;18.848;2023-02-15T01:03:14;32.50;;;19.13;;
37355;SDS011;48747;50.250;18.848;2023-02-15T01:05:24;34.25;;;19.60;;
37355;SDS011;48747;50.250;18.848;2023-02-15T01:09:47;34.65;;;20.92;;
37355;SDS011;48747;50.250;18.848;2023-02-15T01:11:55;39.05;;;21.02;;
37355;SDS011;48747;50.250;18.848;2023-02-15T01:14:23;36.53;;;21.95;;
37355;SDS011;48747;50.250;18.848;2023-02-15T01:16:10;37.63;;;21.97;;
37355;SDS011;48747;50.250;18.848;2023-02-15T01:18:20;38.60;;;20.02;;
37355;SDS011;48747;50.250;18.848;2023-02-15T01:20:29;38.95;;;22.65;;
37355;SDS011;48747;50.250;18.848;2023-02-15T01:24:42;40.98;;;22.35;;
37355;SDS011;48747;50.250;18.848;2023-02-15T01:26:56;35.70;;;19.52;;
37355;SDS011;48747;50.250;18.848;2023-02-15T01:29:12;37.75;;;20.12;;
37355;SDS011;48747;50.250;18.848;2023-02-15T01:31:24;39.23;;;21.45;;
37355;SDS011;48747;50.250;18.848;2023-02-15T01:33:26;36.98;;;22.15;;
37355;SDS011;48747;50.250;18.848;2023-02-15T01:37:43;38.53;;;22.37;;
37355;SDS011;48747;50.250;18.848;2023-02-15T01:41:57;39.15;;;21.87;;
37355;SDS011;48747;50.250;18.848;2023-02-15T01:46:43;39.10;;;22.37;;
37355;SDS011;48747;50.250;18.848;2023-02-15T01:48:48;36.55;;;20.12;;
37355;SDS011;48747;50.250;18.848;2023-02-15T01:51:07;33.15;;;19.25;;
37355;SDS011;48747;50.250;18.848;2023-02-15T01:53:13;34.48;;;20.68;;
37355;SDS011;48747;50.250;18.848;2023-02-15T01:55:20;30.85;;;18.40;;
37355;SDS011;48747;50.250;18.848;2023-02-15T01:57:26;31.25;;;19.85;;
37355;SDS011;48747;50.250;18.848;2023-02-15T01:59:30;34.43;;;18.80;;
37355;SDS011;48747;50.250;18.848;2023-02-15T02:01:35;35.17;;;18.77;;
37355;SDS011;48747;50.250;18.848;2023-02-15T02:05:51;42.88;;;21.52;;
37355;SDS011;48747;50.250;18.848;2023-02-15T02:07:56;36.80;;;20.68;;
37355;SDS011;48747;50.250;18.848;2023-02-15T02:10:01;34.75;;;18.10;;
37355;SDS011;48747;50.250;18.848;2023-02-15T02:14:15;34.60;;;20.95;;
37355;SDS011;48747;50.250;18.848;2023-02-15T02:16:29;34.43;;;20.00;;
37355;SDS011;48747;50.250;18.848;2023-02-15T02:18:47;33.08;;;19.62;;
37355;SDS011;48747;50.250;18.848;2023-02-15T02:40:17;39.38;;;20.75;;
37355;SDS011;48747;50.250;18.848;2023-02-15T02:44:49;37.75;;;19.87;;
37355;SDS011;48747;50.250;18.848;2023-02-15T02:46:59;33.20;;;19.42;;
37355;SDS011;48747;50.250;18.848;2023-02-15T02:49:14;36.93;;;19.42;;
37355;SDS011;48747;50.250;18.848;2023-02-15T02:51:16;35.48;;;19.67;;
37355;SDS011;48747;50.250;18.848;2023-02-15T02:53:30;37.10;;;20.23;;
37355;SDS011;48747;50.250;18.848;2023-02-15T02:55:50;37.17;;;22.07;;
37355;SDS011;48747;50.250;18.848;2023-02-15T02:58:13;39.45;;;21.45;;
37355;SDS011;48747;50.250;18.848;2023-02-15T03:00:17;35.43;;;19.37;;
37355;SDS011;48747;50.250;18.848;2023-02-15T03:02:25;36.68;;;20.45;;
37355;SDS011;48747;50.250;18.848;2023-02-15T03:04:29;36.28;;;20.10;;
37355;SDS011;48747;50.250;18.848;2023-02-15T03:08:53;36.75;;;21.57;;
37355;SDS011;48747;50.250;18.848;2023-02-15T03:11:23;33.13;;;19.23;;
37355;SDS011;48747;50.250;18.848;2023-02-15T03:13:18;38.88;;;19.85;;
37355;SDS011;48747;50.250;18.848;2023-02-15T03:15:26;36.05;;;19.52;;
37355;SDS011;48747;50.250;18.848;2023-02-15T03:17:46;36.42;;;19.55;;
37355;SDS011;48747;50.250;18.848;2023-02-15T03:19:55;33.73;;;19.90;;
37355;SDS011;48747;50.250;18.848;2023-02-15T03:24:31;40.43;;;21.95;;
37355;SDS011;48747;50.250;18.848;2023-02-15T03:26:31;34.05;;;19.80;;
37355;SDS011;48747;50.250;18.848;2023-02-15T03:28:41;30.55;;;18.42;;
37355;SDS011;48747;50.250;18.848;2023-02-15T03:30:48;33.80;;;18.85;;
37355;SDS011;48747;50.250;18.848;2023-02-15T03:33:09;36.23;;;20.45;;
37355;SDS011;48747;50.250;18.848;2023-02-15T03:44:47;34.67;;;20.50;;
37355;SDS011;48747;50.250;18.848;2023-02-15T03:46:15;34.53;;;18.95;;
37355;SDS011;48747;50.250;18.848;2023-02-15T03:48:28;40.63;;;20.60;;
37355;SDS011;48747;50.250;18.848;2023-02-15T03:53:05;33.88;;;19.50;;
37355;SDS011;48747;50.250;18.848;2023-02-15T03:55:04;34.15;;;19.70;;
37355;SDS011;48747;50.250;18.848;2023-02-15T03:57:24;38.45;;;20.65;;
37355;SDS011;48747;50.250;18.848;2023-02-15T03:59:43;36.10;;;21.62;;
37355;SDS011;48747;50.250;18.848;2023-02-15T04:02:42;35.60;;;19.40;;
37355;SDS011;48747;50.250;18.848;2023-02-15T04:04:36;37.50;;;20.08;;
37355;SDS011;48747;50.250;18.848;2023-02-15T04:06:29;34.03;;;19.35;;
37355;SDS011;48747;50.250;18.848;2023-02-15T04:08:40;30.62;;;17.92;;
37355;SDS011;48747;50.250;18.848;2023-02-15T04:11:05;34.80;;;18.10;;
37355;SDS011;48747;50.250;18.848;2023-02-15T04:15:17;31.85;;;17.95;;
37355;SDS011;48747;50.250;18.848;2023-02-15T04:17:37;33.15;;;17.98;;
37355;SDS011;48747;50.250;18.848;2023-02-15T04:19:48;29.37;;;16.50;;
37355;SDS011;48747;50.250;18.848;2023-02-15T04:22:15;29.32;;;17.32;;
37355;SDS011;48747;50.250;18.848;2023-02-15T04:24:38;28.70;;;17.90;;
37355;SDS011;48747;50.250;18.848;2023-02-15T04:27:01;36.08;;;17.98;;
37355;SDS011;48747;50.250;18.848;2023-02-15T04:29:06;34.83;;;18.27;;
37355;SDS011;48747;50.250;18.848;2023-02-15T04:31:18;31.33;;;19.07;;
37355;SDS011;48747;50.250;18.848;2023-02-15T04:35:29;30.20;;;17.85;;
37355;SDS011;48747;50.250;18.848;2023-02-15T04:37:44;36.15;;;20.48;;
37355;SDS011;48747;50.250;18.848;2023-02-15T04:39:51;30.02;;;17.30;;
37355;SDS011;48747;50.250;18.848;2023-02-15T04:42:08;30.27;;;17.10;;
37355;SDS011;48747;50.250;18.848;2023-02-15T04:44:08;33.15;;;18.73;;
37355;SDS011;48747;50.250;18.848;2023-02-15T04:46:18;36.65;;;19.32;;
37355;SDS011;48747;50.250;18.848;2023-02-15T04:50:32;33.92;;;19.00;;
37355;SDS011;48747;50.250;18.848;2023-02-15T04:52:52;30.02;;;17.20;;
37355;SDS011;48747;50.250;18.848;2023-02-15T04:54:44;33.05;;;18.35;;
37355;SDS011;48747;50.250;18.848;2023-02-15T04:59:03;34.45;;;19.12;;
37355;SDS011;48747;50.250;18.848;2023-02-15T05:01:10;32.35;;;19.50;;
37355;SDS011;48747;50.250;18.848;2023-02-15T05:03:22;30.08;;;16.90;;
37355;SDS011;48747;50.250;18.848;2023-02-15T05:07:47;36.20;;;20.15;;
37355;SDS011;48747;50.250;18.848;2023-02-15T05:09:56;35.40;;;18.12;;
37355;SDS011;48747;50.250;18.848;2023-02-15T05:12:22;34.13;;;19.42;;
37355;SDS011;48747;50.250;18.848;2023-02-15T05:18:34;33.40;;;19.85;;
37355;SDS011;48747;50.250;18.848;2023-02-15T05:20:51;39.38;;;21.70;;
37355;SDS011;48747;50.250;18.848;2023-02-15T05:25:03;40.78;;;22.17;;
37355;SDS011;48747;50.250;18.848;2023-02-15T05:27:27;36.13;;;19.37;;
37355;SDS011;48747;50.250;18.848;2023-02-15T05:29:58;35.80;;;19.42;;
37355;SDS011;48747;50.250;18.848;2023-02-15T05:32:00;36.95;;;19.55;;
37355;SDS011;48747;50.250;18.848;2023-02-15T05:34:05;37.10;;;21.57;;
37355;SDS011;48747;50.250;18.848;2023-02-15T05:36:29;32.90;;;18.35;;
37355;SDS011;48747;50.250;18.848;2023-02-15T05:38:19;38.58;;;21.97;;
37355;SDS011;48747;50.250;18.848;2023-02-15T05:45:05;38.53;;;22.05;;
37355;SDS011;48747;50.250;18.848;2023-02-15T05:46:51;36.53;;;20.05;;
37355;SDS011;48747;50.250;18.848;2023-02-15T05:49:14;43.40;;;24.15;;
37355;SDS011;48747;50.250;18.848;2023-02-15T05:51:13;43.10;;;21.87;;
37355;SDS011;48747;50.250;18.848;2023-02-15T05:53:52;37.50;;;20.35;;
37355;SDS011;48747;50.250;18.848;2023-02-15T05:55:40;38.83;;;21.93;;
37355;SDS011;48747;50.250;18.848;2023-02-15T06:06:12;39.63;;;20.37;;
37355;SDS011;48747;50.250;18.848;2023-02-15T06:08:22;44.53;;;23.52;;
37355;SDS011;48747;50.250;18.848;2023-02-15T06:12:39;44.40;;;24.80;;
37355;SDS011;48747;50.250;18.848;2023-02-15T06:14:42;45.92;;;26.65;;
37355;SDS011;48747;50.250;18.848;2023-02-15T06:16:56;48.38;;;25.35;;
37355;SDS011;48747;50.250;18.848;2023-02-15T06:21:05;46.00;;;24.10;;
37355;SDS011;48747;50.250;18.848;2023-02-15T06:23:15;44.42;;;23.00;;
37355;SDS011;48747;50.250;18.848;2023-02-15T06:25:35;50.20;;;26.65;;
37355;SDS011;48747;50.250;18.848;2023-02-15T06:27:30;50.50;;;27.45;;
37355;SDS011;48747;50.250;18.848;2023-02-15T06:29:51;50.55;;;27.52;;
37355;SDS011;48747;50.250;18.848;2023-02-15T06:34:12;49.40;;;25.20;;
37355;SDS011;48747;50.250;18.848;2023-02-15T06:36:17;51.50;;;26.85;;
37355;SDS011;48747;50.250;18.848;2023-02-15T06:46:28;56.13;;;29.12;;
37355;SDS011;48747;50.250;18.848;2023-02-15T06:48:31;48.13;;;25.17;;
37355;SDS011;48747;50.250;18.848;2023-02-15T06:53:32;53.78;;;28.92;;
37355;SDS011;48747;50.250;18.848;2023-02-15T06:55:36;60.95;;;28.60;;
37355;SDS011;48747;50.250;18.848;2023-02-15T07:00:24;51.33;;;27.30;;
37355;SDS011;48747;50.250;18.848;2023-02-15T07:04:34;60.28;;;30.37;;
37355;SDS011;48747;50.250;18.848;2023-02-15T07:06:42;56.33;;;29.95;;
37355;SDS011;48747;50.250;18.848;2023-02-15T07:08:47;52.85;;;27.30;;
37355;SDS011;48747;50.250;18.848;2023-02-15T07:11:08;46.65;;;25.37;;
37355;SDS011;48747;50.250;18.848;2023-02-15T07:16:20;54.55;;;28.67;;
37355;SDS011;48747;50.250;18.848;2023-02-15T07:18:28;50.17;;;28.10;;
37355;SDS011;48747;50.250;18.848;2023-02-15T07:20:33;56.25;;;29.00;;
37355;SDS011;48747;50.250;18.848;2023-02-15T07:22:39;52.10;;;28.23;;
37355;SDS011;48747;50.250;18.848;2023-02-15T07:24:46;56.92;;;29.23;;
37355;SDS011;48747;50.250;18.848;2023-02-15T07:26:51;53.78;;;28.20;;
37355;SDS011;48747;50.250;18.848;2023-02-15T07:31:12;51.58;;;27.22;;
37355;SDS011;48747;50.250;18.848;2023-02-15T07:33:19;50.83;;;27.90;;
37355;SDS011;48747;50.250;18.848;2023-02-15T07:35:27;53.20;;;28.15;;
37355;SDS011;48747;50.250;18.848;2023-02-15T07:37:37;51.58;;;27.73;;
37355;SDS011;48747;50.250;18.848;2023-02-15T07:39:39;55.52;;;28.77;;
37355;SDS011;48747;50.250;18.848;2023-02-15T07:44:18;50.28;;;28.12;;
37355;SDS011;48747;50.250;18.848;2023-02-15T07:46:20;53.83;;;29.63;;
37355;SDS011;48747;50.250;18.848;2023-02-15T07:48:37;55.35;;;30.72;;
37355;SDS011;48747;50.250;18.848;2023-02-15T07:50:48;47.45;;;26.77;;
37355;SDS011;48747;50.250;18.848;2023-02-15T07:52:48;55.40;;;28.12;;
37355;SDS011;48747;50.250;18.848;2023-02-15T07:57:07;48.78;;;26.60;;
37355;SDS011;48747;50.250;18.848;2023-02-15T07:59:18;51.30;;;24.52;;
37355;SDS011;48747;50.250;18.848;2023-02-15T08:01:32;59.88;;;29.07;;
37355;SDS011;48747;50.250;18.848;2023-02-15T08:03:44;48.35;;;27.45;;
37355;SDS011;48747;50.250;18.848;2023-02-15T08:05:55;49.25;;;26.52;;
37355;SDS011;48747;50.250;18.848;2023-02-15T08:08:00;52.93;;;29.23;;
37355;SDS011;48747;50.250;18.848;2023-02-15T08:10:08;55.35;;;28.95;;
37355;SDS011;48747;50.250;18.848;2023-02-15T08:12:20;68.97;;;33.23;;
37355;SDS011;48747;50.250;18.848;2023-02-15T08:14:26;66.70;;;36.40;;
37355;SDS011;48747;50.250;18.848;2023-02-15T08:18:40;60.05;;;32.78;;
37355;SDS011;48747;50.250;18.848;2023-02-15T08:23:00;48.95;;;28.45;;
37355;SDS011;48747;50.250;18.848;2023-02-15T08:25:15;51.13;;;28.62;;
37355;SDS011;48747;50.250;18.848;2023-02-15T08:29:36;50.58;;;27.80;;
37355;SDS011;48747;50.250;18.848;2023-02-15T08:32:01;48.87;;;27.13;;
37355;SDS011;48747;50.250;18.848;2023-02-15T08:34:13;47.35;;;27.00;;
37355;SDS011;48747;50.250;18.848;2023-02-15T08:36:20;48.52;;;25.45;;
37355;SDS011;48747;50.250;18.848;2023-02-15T08:38:16;47.78;;;26.30;;
37355;SDS011;48747;50.250;18.848;2023-02-15T08:40:25;46.85;;;25.88;;
37355;SDS011;48747;50.250;18.848;2023-02-15T08:42:43;49.13;;;28.45;;
37355;SDS011;48747;50.250;18.848;2023-02-15T08:45:25;51.37;;;27.65;;
37355;SDS011;48747;50.250;18.848;2023-02-15T08:46:55;48.70;;;25.88;;
37355;SDS011;48747;50.250;18.848;2023-02-15T08:49:01;44.48;;;25.27;;
37355;SDS011;48747;50.250;18.848;2023-02-15T08:51:16;43.25;;;23.95;;
37355;SDS011;48747;50.250;18.848;2023-02-15T08:56:10;42.88;;;25.15;;
37355;SDS011;48747;50.250;18.848;2023-02-15T08:57:35;45.45;;;24.40;;
37355;SDS011;48747;50.250;18.848;2023-02-15T08:59:45;49.40;;;26.05;;
37355;SDS011;48747;50.250;18.848;2023-02-15T09:01:54;43.58;;;23.05;;
37355;SDS011;48747;50.250;18.848;2023-02-15T09:06:08;41.98;;;24.25;;
37355;SDS011;48747;50.250;18.848;2023-02-15T09:08:16;43.70;;;22.85;;
37355;SDS011;48747;50.250;18.848;2023-02-15T09:10:25;46.55;;;23.15;;
37355;SDS011;48747;50.250;18.848;2023-02-15T09:12:44;38.55;;;23.57;;
37355;SDS011;48747;50.250;18.848;2023-02-15T09:17:48;42.10;;;23.10;;
37355;SDS011;48747;50.250;18.848;2023-02-15T09:19:52;38.80;;;22.32;;
37355;SDS011;48747;50.250;18.848;2023-02-15T09:22:02;39.98;;;22.30;;
37355;SDS011;48747;50.250;18.848;2023-02-15T09:24:12;43.13;;;22.82;;
37355;SDS011;48747;50.250;18.848;2023-02-15T09:26:15;38.45;;;22.45;;
37355;SDS011;48747;50.250;18.848;2023-02-15T09:28:28;40.63;;;23.92;;
37355;SDS011;48747;50.250;18.848;2023-02-15T09:36:39;41.42;;;22.98;;
37355;SDS011;48747;50.250;18.848;2023-02-15T09:38:50;40.60;;;24.05;;
37355;SDS011;48747;50.250;18.848;2023-02-15T09:43:19;44.20;;;23.45;;
37355;SDS011;48747;50.250;18.848;2023-02-15T09:50:02;34.75;;;20.77;;
37355;SDS011;48747;50.250;18.848;2023-02-15T09:52:20;39.33;;;24.15;;
37355;SDS011;48747;50.250;18.848;2023-02-15T09:56:43;39.18;;;21.33;;
37355;SDS011;48747;50.250;18.848;2023-02-15T10:06:00;36.68;;;21.55;;
37355;SDS011;48747;50.250;18.848;2023-02-15T10:08:24;34.95;;;20.27;;
37355;SDS011;48747;50.250;18.848;2023-02-15T10:10:27;37.93;;;20.88;;
37355;SDS011;48747;50.250;18.848;2023-02-15T10:26:59;39.67;;;21.30;;
37355;SDS011;48747;50.250;18.848;2023-02-15T10:29:09;36.28;;;19.48;;
37355;SDS011;48747;50.250;18.848;2023-02-15T10:31:45;35.92;;;20.20;;
37355;SDS011;48747;50.250;18.848;2023-02-15T10:33:48;35.78;;;20.68;;
37355;SDS011;48747;50.250;18.848;2023-02-15T10:36:01;32.75;;;18.10;;
37355;SDS011;48747;50.250;18.848;2023-02-15T10:45:34;32.28;;;17.85;;
37355;SDS011;48747;50.250;18.848;2023-02-15T11:09:27;32.70;;;18.30;;
37355;SDS011;48747;50.250;18.848;2023-02-15T11:11:45;26.85;;;16.02;;
37355;SDS011;48747;50.250;18.848;2023-02-15T11:23:09;29.27;;;17.27;;
37355;SDS011;48747;50.250;18.848;2023-02-15T11:25:14;34.98;;;19.05;;
37355;SDS011;48747;50.250;18.848;2023-02-15T11:27:22;27.05;;;16.32;;
37355;SDS011;48747;50.250;18.848;2023-02-15T11:29:44;30.85;;;17.80;;
37355;SDS011;48747;50.250;18.848;2023-02-15T11:32:11;32.73;;;18.17;;
37355;SDS011;48747;50.250;18.848;2023-02-15T11:34:31;33.67;;;18.07;;
37355;SDS011;48747;50.250;18.848;2023-02-15T11:36:50;33.73;;;19.73;;
37355;SDS011;48747;50.250;18.848;2023-02-15T11:38:47;26.30;;;14.58;;
37355;SDS011;48747;50.250;18.848;2023-02-15T11:41:02;31.87;;;18.02;;
37355;SDS011;48747;50.250;18.848;2023-02-15T11:43:23;39.53;;;20.00;;
37355;SDS011;48747;50.250;18.848;2023-02-15T11:45:46;31.25;;;17.27;;
37355;SDS011;48747;50.250;18.848;2023-02-15T11:48:04;37.42;;;21.25;;
37355;SDS011;48747;50.250;18.848;2023-02-15T11:52:16;32.10;;;18.60;;
37355;SDS011;48747;50.250;18.848;2023-02-15T11:54:21;35.80;;;20.80;;
37355;SDS011;48747;50.250;18.848;2023-02-15T12:03:22;35.30;;;19.62;;
37355;SDS011;48747;50.250;18.848;2023-02-15T12:07:41;34.30;;;18.15;;
37355;SDS011;48747;50.250;18.848;2023-02-15T12:09:53;33.48;;;19.23;;
37355;SDS011;48747;50.250;18.848;2023-02-15T12:14:46;35.00;;;18.50;;
37355;SDS011;48747;50.250;18.848;2023-02-15T12:16:54;28.87;;;17.00;;
37355;SDS011;48747;50.250;18.848;2023-02-15T12:18:56;29.67;;;17.02;;
37355;SDS011;48747;50.250;18.848;2023-02-15T12:21:06;28.92;;;17.37;;
37355;SDS011;48747;50.250;18.848;2023-02-15T12:23:12;37.48;;;17.52;;
37355;SDS011;48747;50.250;18.848;2023-02-15T12:25:21;33.55;;;18.17;;
37355;SDS011;48747;50.250;18.848;2023-02-15T12:27:44;34.88;;;18.57;;
37355;SDS011;48747;50.250;18.848;2023-02-15T12:29:50;40.78;;;21.27;;
37355;SDS011;48747;50.250;18.848;2023-02-15T12:31:55;37.50;;;21.02;;
37355;SDS011;48747;50.250;18.848;2023-02-15T12:34:00;44.77;;;22.20;;
37355;SDS011;48747;50.250;18.848;2023-02-15T12:36:12;38.92;;;21.52;;
37355;SDS011;48747;50.250;18.848;2023-02-15T12:40:26;38.83;;;21.15;;
37355;SDS011;48747;50.250;18.848;2023-02-15T12:42:44;41.53;;;20.05;;
37355;SDS011;48747;50.250;18.848;2023-02-15T12:45:02;42.67;;;22.00;;
37355;SDS011;48747;50.250;18.848;2023-02-15T12:47:18;48.90;;;25.02;;
37355;SDS011;48747;50.250;18.848;2023-02-15T12:49:19;38.90;;;22.58;;
37355;SDS011;48747;50.250;18.848;2023-02-15T12:51:22;39.53;;;21.70;;
37355;SDS011;48747;50.250;18.848;2023-02-15T12:53:32;42.67;;;23.32;;
37355;SDS011;48747;50.250;18.848;2023-02-15T12:55:38;42.73;;;21.85;;
37355;SDS011;48747;50.250;18.848;2023-02-15T12:57:42;38.60;;;20.02;;
37355;SDS011;48747;50.250;18.848;2023-02-15T12:59:48;42.80;;;22.98;;
37355;SDS011;48747;50.250;18.848;2023-02-15T13:01:52;41.88;;;23.80;;
37355;SDS011;48747;50.250;18.848;2023-02-15T13:03:57;41.63;;;24.07;;
37355;SDS011;48747;50.250;18.848;2023-02-15T13:06:02;43.35;;;23.35;;
37355;SDS011;48747;50.250;18.848;2023-02-15T13:10:37;42.62;;;22.87;;
37355;SDS011;48747;50.250;18.848;2023-02-15T13:12:37;40.85;;;22.85;;
37355;SDS011;48747;50.250;18.848;2023-02-15T13:14:43;43.17;;;23.07;;
37355;SDS011;48747;50.250;18.848;2023-02-15T13:16:47;40.95;;;23.18;;
37355;SDS011;48747;50.250;18.848;2023-02-15T13:18:53;44.73;;;23.15;;
37355;SDS011;48747;50.250;18.848;2023-02-15T13:20:56;40.03;;;22.10;;
37355;SDS011;48747;50.250;18.848;2023-02-15T13:23:02;41.15;;;22.48;;
37355;SDS011;48747;50.250;18.848;2023-02-15T13:25:17;42.20;;;22.00;;
37355;SDS011;48747;50.250;18.848;2023-02-15T13:27:30;41.10;;;22.35;;
37355;SDS011;48747;50.250;18.848;2023-02-15T13:29:34;43.55;;;24.57;;
37355;SDS011;48747;50.250;18.848;2023-02-15T13:31:40;41.85;;;22.82;;
37355;SDS011;48747;50.250;18.848;2023-02-15T13:34:03;45.28;;;23.95;;
37355;SDS011;48747;50.250;18.848;2023-02-15T13:36:19;38.42;;;21.57;;
37355;SDS011;48747;50.250;18.848;2023-02-15T13:40:46;41.73;;;23.07;;
37355;SDS011;48747;50.250;18.848;2023-02-15T13:43:00;49.10;;;28.32;;
37355;SDS011;48747;50.250;18.848;2023-02-15T13:52:33;48.73;;;25.97;;
37355;SDS011;48747;50.250;18.848;2023-02-15T13:54:57;43.10;;;22.95;;
37355;SDS011;48747;50.250;18.848;2023-02-15T13:59:40;33.38;;;19.50;;
37355;SDS011;48747;50.250;18.848;2023-02-15T14:16:41;36.05;;;20.85;;
37355;SDS011;48747;50.250;18.848;2023-02-15T14:18:55;43.00;;;22.40;;
37355;SDS011;48747;50.250;18.848;2023-02-15T14:23:19;36.28;;;20.57;;
37355;SDS011;48747;50.250;18.848;2023-02-15T14:25:31;33.48;;;17.75;;
37355;SDS011;48747;50.250;18.848;2023-02-15T14:27:54;33.78;;;19.17;;
37355;SDS011;48747;50.250;18.848;2023-02-15T14:30:17;33.05;;;18.55;;
37355;SDS011;48747;50.250;18.848;2023-02-15T14:32:25;35.23;;;19.50;;
37355;SDS011;48747;50.250;18.848;2023-02-15T14:34:52;37.50;;;20.62;;
37355;SDS011;48747;50.250;18.848;2023-02-15T14:41:59;37.70;;;19.73;;
37355;SDS011;48747;50.250;18.848;2023-02-15T14:48:34;44.50;;;23.32;;
37355;SDS011;48747;50.250;18.848;2023-02-15T14:55:35;53.63;;;27.75;;
37355;SDS011;48747;50.250;18.848;2023-02-15T14:57:38;48.63;;;25.75;;
37355;SDS011;48747;50.250;18.848;2023-02-15T14:59:55;43.92;;;26.00;;
37355;SDS011;48747;50.250;18.848;2023-02-15T15:04:15;51.73;;;27.05;;
37355;SDS011;48747;50.250;18.848;2023-02-15T15:06:34;47.20;;;24.55;;
37355;SDS011;48747;50.250;18.848;2023-02-15T15:08:39;43.23;;;23.25;;
37355;SDS011;48747;50.250;18.848;2023-02-15T15:10:44;51.98;;;27.42;;
37355;SDS011;48747;50.250;18.848;2023-02-15T15:12:50;49.48;;;26.17;;
37355;SDS011;48747;50.250;18.848;2023-02-15T15:15:00;58.83;;;29.70;;
37355;SDS011;48747;50.250;18.848;2023-02-15T15:17:05;53.45;;;27.50;;
37355;SDS011;48747;50.250;18.848;2023-02-15T15:19:10;49.30;;;26.62;;
37355;SDS011;48747;50.250;18.848;2023-02-15T15:23:52;42.23;;;23.40;;
37355;SDS011;48747;50.250;18.848;2023-02-15T15:26:20;45.58;;;24.05;;
37355;SDS011;48747;50.250;18.848;2023-02-15T15:47:28;68.37;;;33.90;;
37355;SDS011;48747;50.250;18.848;2023-02-15T15:49:46;123.67;;;55.63;;
37355;SDS011;48747;50.250;18.848;2023-02-15T15:53:51;74.07;;;33.67;;
37355;SDS011;48747;50.250;18.848;2023-02-15T15:58:09;71.62;;;36.58;;
37355;SDS011;48747;50.250;18.848;2023-02-15T16:02:49;61.73;;;33.13;;
37355;SDS011;48747;50.250;18.848;2023-02-15T16:04:54;69.45;;;33.20;;
37355;SDS011;48747;50.250;18.848;2023-02-15T16:07:20;78.70;;;38.48;;
37355;SDS011;48747;50.250;18.848;2023-02-15T16:09:21;78.30;;;38.73;;
37355;SDS011;48747;50.250;18.848;2023-02-15T16:11:29;75.08;;;38.23;;
37355;SDS011;48747;50.250;18.848;2023-02-15T16:13:34;76.65;;;37.35;;
37355;SDS011;48747;50.250;18.848;2023-02-15T16:15:46;80.60;;;38.38;;
37355;SDS011;48747;50.250;18.848;2023-02-15T16:18:00;79.37;;;39.95;;
37355;SDS011;48747;50.250;18.848;2023-02-15T16:20:13;89.50;;;45.23;;
37355;SDS011;48747;50.250;18.848;2023-02-15T16:22:15;81.45;;;43.65;;
37355;SDS011;48747;50.250;18.848;2023-02-15T16:24:43;91.20;;;44.98;;
37355;SDS011;48747;50.250;18.848;2023-02-15T16:26:44;94.67;;;45.98;;
37355;SDS011;48747;50.250;18.848;2023-02-15T16:28:53;94.05;;;46.77;;
37355;SDS011;48747;50.250;18.848;2023-02-15T16:31:11;96.20;;;47.05;;
37355;SDS011;48747;50.250;18.848;2023-02-15T16:33:15;131.20;;;53.45;;
37355;SDS011;48747;50.250;18.848;2023-02-15T16:35:20;135.68;;;54.63;;
37355;SDS011;48747;50.250;18.848;2023-02-15T16:37:31;109.90;;;48.38;;
37355;SDS011;48747;50.250;18.848;2023-02-15T16:39:37;121.28;;;53.30;;
37355;SDS011;48747;50.250;18.848;2023-02-15T16:41:45;127.80;;;57.88;;
37355;SDS011;48747;50.250;18.848;2023-02-15T16:43:50;145.72;;;66.42;;
37355;SDS011;48747;50.250;18.848;2023-02-15T16:46:02;179.07;;;76.30;;
37355;SDS011;48747;50.250;18.848;2023-02-15T16:48:14;163.62;;;69.40;;
37355;SDS011;48747;50.250;18.848;2023-02-15T16:50:26;170.28;;;73.97;;
37355;SDS011;48747;50.250;18.848;2023-02-15T16:52:25;162.20;;;68.35;;
37355;SDS011;48747;50.250;18.848;2023-02-15T16:54:30;137.77;;;59.20;;
37355;SDS011;48747;50.250;18.848;2023-02-15T16:56:34;146.18;;;63.25;;
37355;SDS011;48747;50.250;18.848;2023-02-15T16:58:39;146.50;;;65.32;;
37355;SDS011;48747;50.250;18.848;2023-02-15T17:00:44;127.90;;;60.12;;
37355;SDS011;48747;50.250;18.848;2023-02-15T17:02:56;128.60;;;61.28;;
37355;SDS011;48747;50.250;18.848;2023-02-15T17:07:19;107.78;;;52.83;;
37355;SDS011;48747;50.250;18.848;2023-02-15T17:09:22;106.00;;;50.80;;
37355;SDS011;48747;50.250;18.848;2023-02-15T17:11:33;94.95;;;46.02;;
37355;SDS011;48747;50.250;18.848;2023-02-15T17:13:39;105.45;;;50.70;;
37355;SDS011;48747;50.250;18.848;2023-02-15T17:15:46;104.25;;;49.30;;
37355;SDS011;48747;50.250;18.848;2023-02-15T17:18:12;104.43;;;50.20;;
37355;SDS011;48747;50.250;18.848;2023-02-15T17:20:17;141.82;;;62.05;;
37355;SDS011;48747;50.250;18.848;2023-02-15T17:22:25;114.30;;;51.85;;
37355;SDS011;48747;50.250;18.848;2023-02-15T17:26:36;128.27;;;56.13;;
37355;SDS011;48747;50.250;18.848;2023-02-15T17:28:40;143.22;;;61.37;;
37355;SDS011;48747;50.250;18.848;2023-02-15T17:30:56;149.55;;;65.40;;
37355;SDS011;48747;50.250;18.848;2023-02-15T17:32:56;139.77;;;59.73;;
37355;SDS011;48747;50.250;18.848;2023-02-15T17:37:22;142.60;;;67.53;;
37355;SDS011;48747;50.250;18.848;2023-02-15T17:39:31;146.53;;;67.17;;